sensor_id;sensor_type;location;lat;lon;timestamp;pressure;altitude;pressure_sealevel;temperature;humidity
18765;BME280;9511;54.242;12.448;2023-05-10T03:05:45;101026.00;;;8.43;71.55
18765;BME280;9511;54.242;12.448;2023-05-10T03:08:13;101022.28;;;8.38;71.37
18765;BME280;9511;54.242;12.448;2023-05-10T03:10:45;101030.09;;;8.37;71.81
18765;BME280;9511;54.242;12.448;2023-05-10T03:13:29;101038.84;;;8.36;72.18
18765;BME280;9511;54.242;12.448;2023-05-10T03:16:07;101027.59;;;8.40;72.16
18765;BME280;9511;54.242;12.448;2023-05-10T03:18:42;101024.97;;;8.40;72.12
18765;BME280;9511;54.242;12.448;2023-05-10T03:21:13;101018.66;;;8.36;72.25
18765;BME280;9511;54.242;12.448;2023-05-10T03:23:44;101022.59;;;8.47;71.92
18765;BME280;9511;54.242;12.448;2023-05-10T03:26:17;101017.16;;;8.43;71.55
18765;BME280;9511;54.242;12.448;2023-05-10T03:28:49;101018.00;;;8.42;71.45
18765;BME280;9511;54.242;12.448;2023-05-10T03:31:17;101020.72;;;8.43;72.33
18765;BME280;9511;54.242;12.448;2023-05-10T03:33:48;101026.50;;;8.35;71.77
18765;BME280;9511;54.242;12.448;2023-05-10T03:36:21;101022.34;;;8.40;71.68
18765;BME280;9511;54.242;12.448;2023-05-10T03:38:48;101016.75;;;8.32;72.20
18765;BME280;9511;54.242;12.448;2023-05-10T03:41:15;101017.78;;;8.36;72.29
18765;BME280;9511;54.242;12.448;2023-05-10T03:43:42;101016.75;;;8.32;72.13
18765;BME280;9511;54.242;12.448;2023-05-10T03:46:10;101019.44;;;8.34;72.14
18765;BME280;9511;54.242;12.448;2023-05-10T03:48:37;101012.81;;;8.43;72.31
18765;BME280;9511;54.242;12.448;2023-05-10T03:51:05;101013.75;;;8.45;72.51
18765;BME280;9511;54.242;12.448;2023-05-10T03:53:34;101018.13;;;8.45;72.66
18765;BME280;9511;54.242;12.448;2023-05-10T03:56:01;101010.22;;;8.45;72.10
18765;BME280;9511;54.242;12.448;2023-05-10T03:58:28;101015.78;;;8.52;71.83
18765;BME280;9511;54.242;12.448;2023-05-10T04:00:56;101014.88;;;8.52;72.07
18765;BME280;9511;54.242;12.448;2023-05-10T04:03:23;101018.38;;;8.51;72.34
18765;BME280;9511;54.242;12.448;2023-05-10T04:05:59;101022.06;;;8.56;72.49
18765;BME280;9511;54.242;12.448;2023-05-10T04:08:27;101014.34;;;8.61;72.06
18765;BME280;9511;54.242;12.448;2023-05-10T04:11:04;101004.09;;;8.70;72.00
18765;BME280;9511;54.242;12.448;2023-05-10T04:13:32;101018.31;;;8.73;72.21
18765;BME280;9511;54.242;12.448;2023-05-10T04:15:59;101011.06;;;8.92;71.83
18765;BME280;9511;54.242;12.448;2023-05-10T04:18:27;101013.06;;;8.99;71.48
18765;BME280;9511;54.242;12.448;2023-05-10T04:20:54;101015.09;;;9.06;70.76
18765;BME280;9511;54.242;12.448;2023-05-10T04:23:21;101004.75;;;9.12;70.77
18765;BME280;9511;54.242;12.448;2023-05-10T04:25:48;101010.13;;;9.15;71.02
18765;BME280;9511;54.242;12.448;2023-05-10T04:28:17;101007.13;;;9.30;71.14
18765;BME280;9511;54.242;12.448;2023-05-10T04:30:44;101000.88;;;9.28;70.01
18765;BME280;9511;54.242;12.448;2023-05-10T04:33:12;100998.19;;;9.26;70.31
18765;BME280;9511;54.242;12.448;2023-05-10T04:35:40;101007.16;;;9.31;69.81
18765;BME280;9511;54.242;12.448;2023-05-10T04:38:08;101007.22;;;9.33;70.23
18765;BME280;9511;54.242;12.448;2023-05-10T04:40:35;101002.25;;;9.42;69.75
18765;BME280;9511;54.242;12.448;2023-05-10T04:43:02;101007.97;;;9.56;69.62
18765;BME280;9511;54.242;12.448;2023-05-10T04:45:31;100993.31;;;9.64;68.95
18765;BME280;9511;54.242;12.448;2023-05-10T04:47:58;100993.53;;;9.72;68.88
18765;BME280;9511;54.242;12.448;2023-05-10T04:50:26;100997.06;;;9.72;68.44
18765;BME280;9511;54.242;12.448;2023-05-10T04:52:53;100999.56;;;9.95;68.78
18765;BME280;9511;54.242;12.448;2023-05-10T04:55:20;100989.72;;;9.91;68.42
18765;BME280;9511;54.242;12.448;2023-05-10T04:57:48;100997.91;;;9.98;68.17
18765;BME280;9511;54.242;12.448;2023-05-10T05:00:16;101003.63;;;10.12;67.85
18765;BME280;9511;54.242;12.448;2023-05-10T05:02:45;100988.63;;;10.11;67.89
18765;BME280;9511;54.242;12.448;2023-05-10T05:05:12;100985.13;;;10.12;67.38
18765;BME280;9511;54.242;12.448;2023-05-10T05:07:40;100990.06;;;10.28;67.71
18765;BME280;9511;54.242;12.448;2023-05-10T05:10:08;100992.00;;;10.35;67.67
18765;BME280;9511;54.242;12.448;2023-05-10T05:12:35;100985.88;;;10.36;67.14
18765;BME280;9511;54.242;12.448;2023-05-10T05:15:03;100995.97;;;10.50;66.80
18765;BME280;9511;54.242;12.448;2023-05-10T05:17:31;100988.47;;;10.65;66.54
18765;BME280;9511;54.242;12.448;2023-05-10T05:19:59;100993.13;;;10.74;66.24
18765;BME280;9511;54.242;12.448;2023-05-10T05:22:27;100990.53;;;10.75;65.60
18765;BME280;9511;54.242;12.448;2023-05-10T05:24:54;100987.97;;;10.78;65.73
18765;BME280;9511;54.242;12.448;2023-05-10T05:27:22;100983.06;;;10.94;65.67
18765;BME280;9511;54.242;12.448;2023-05-10T05:29:52;100988.41;;;10.95;65.55
18765;BME280;9511;54.242;12.448;2023-05-10T05:32:19;100987.88;;;11.07;65.71
18765;BME280;9511;54.242;12.448;2023-05-10T05:34:47;100988.75;;;11.07;65.26
18765;BME280;9511;54.242;12.448;2023-05-10T05:37:17;100988.91;;;11.13;65.18
18765;BME280;9511;54.242;12.448;2023-05-10T05:39:45;100989.31;;;11.29;64.99
18765;BME280;9511;54.242;12.448;2023-05-10T05:42:13;100983.38;;;11.39;64.18
18765;BME280;9511;54.242;12.448;2023-05-10T05:44:40;100983.41;;;11.40;64.55
18765;BME280;9511;54.242;12.448;2023-05-10T05:47:08;100984.53;;;11.49;64.74
18765;BME280;9511;54.242;12.448;2023-05-10T05:49:35;100982.75;;;11.48;63.79
18765;BME280;9511;54.242;12.448;2023-05-10T05:52:03;100985.69;;;11.60;64.16
18765;BME280;9511;54.242;12.448;2023-05-10T05:54:32;100993.00;;;11.70;63.86
18765;BME280;9511;54.242;12.448;2023-05-10T05:57:00;100988.31;;;11.94;64.42
18765;BME280;9511;54.242;12.448;2023-05-10T05:59:28;100986.66;;;12.00;63.04
18765;BME280;9511;54.242;12.448;2023-05-10T06:01:55;100978.97;;;12.10;62.64
18765;BME280;9511;54.242;12.448;2023-05-10T06:04:22;100988.84;;;12.19;62.78
18765;BME280;9511;54.242;12.448;2023-05-10T06:06:50;100983.56;;;12.19;61.94
18765;BME280;9511;54.242;12.448;2023-05-10T06:09:17;100981.13;;;12.28;62.49
18765;BME280;9511;54.242;12.448;2023-05-10T06:11:46;100973.31;;;12.36;62.03
18765;BME280;9511;54.242;12.448;2023-05-10T06:14:13;100973.72;;;12.56;61.95
18765;BME280;9511;54.242;12.448;2023-05-10T06:16:40;100971.91;;;12.55;61.18
18765;BME280;9511;54.242;12.448;2023-05-10T06:19:08;100971.81;;;12.48;61.00
18765;BME280;9511;54.242;12.448;2023-05-10T06:21:35;100984.53;;;12.65;61.29
18765;BME280;9511;54.242;12.448;2023-05-10T06:24:02;100973.16;;;12.72;60.50
18765;BME280;9511;54.242;12.448;2023-05-10T06:26:30;100978.78;;;12.89;61.17
18765;BME280;9511;54.242;12.448;2023-05-10T06:28:59;100966.41;;;12.89;59.94
18765;BME280;9511;54.242;12.448;2023-05-10T06:31:27;100968.22;;;12.90;58.97
18765;BME280;9511;54.242;12.448;2023-05-10T06:33:54;100973.56;;;12.93;59.36
18765;BME280;9511;54.242;12.448;2023-05-10T06:36:21;100966.47;;;12.91;59.16
18765;BME280;9511;54.242;12.448;2023-05-10T06:38:50;100961.31;;;13.00;59.36
18765;BME280;9511;54.242;12.448;2023-05-10T06:41:18;100950.06;;;13.15;59.57
18765;BME280;9511;54.242;12.448;2023-05-10T06:43:45;100960.94;;;13.27;59.46
18765;BME280;9511;54.242;12.448;2023-05-10T06:46:13;100952.16;;;13.31;59.85
18765;BME280;9511;54.242;12.448;2023-05-10T06:48:41;100958.56;;;13.44;59.59
18765;BME280;9511;54.242;12.448;2023-05-10T06:51:08;100962.31;;;13.55;58.84
18765;BME280;9511;54.242;12.448;2023-05-10T06:53:36;100955.34;;;13.63;59.34
18765;BME280;9511;54.242;12.448;2023-05-10T06:56:03;100953.78;;;13.77;59.33
18765;BME280;9511;54.242;12.448;2023-05-10T06:58:31;100951.41;;;13.97;58.55
18765;BME280;9511;54.242;12.448;2023-05-10T07:01:02;100951.22;;;13.82;57.62
18765;BME280;9511;54.242;12.448;2023-05-10T07:03:31;100940.78;;;13.97;58.77
18765;BME280;9511;54.242;12.448;2023-05-10T07:06:02;100948.00;;;14.06;58.75
18765;BME280;9511;54.242;12.448;2023-05-10T07:08:30;100945.25;;;14.00;57.67
18765;BME280;9511;54.242;12.448;2023-05-10T07:11:01;100940.97;;;14.11;57.75
18765;BME280;9511;54.242;12.448;2023-05-10T07:13:31;100939.38;;;14.24;57.55
18765;BME280;9511;54.242;12.448;2023-05-10T07:15:59;100931.56;;;14.38;57.95
18765;BME280;9511;54.242;12.448;2023-05-10T07:18:26;100939.66;;;14.45;57.44
18765;BME280;9511;54.242;12.448;2023-05-10T07:20:55;100942.19;;;14.36;56.74
18765;BME280;9511;54.242;12.448;2023-05-10T07:23:23;100938.72;;;14.42;56.67
18765;BME280;9511;54.242;12.448;2023-05-10T07:25:51;100942.50;;;14.59;56.88
18765;BME280;9511;54.242;12.448;2023-05-10T07:28:18;100933.63;;;14.61;55.86
18765;BME280;9511;54.242;12.448;2023-05-10T07:30:46;100936.38;;;14.68;55.37
18765;BME280;9511;54.242;12.448;2023-05-10T07:33:14;100941.75;;;14.72;55.37
18765;BME280;9511;54.242;12.448;2023-05-10T07:35:41;100941.91;;;14.86;55.73
18765;BME280;9511;54.242;12.448;2023-05-10T07:38:10;100932.09;;;14.80;55.28
18765;BME280;9511;54.242;12.448;2023-05-10T07:40:39;100936.72;;;15.01;55.51
18765;BME280;9511;54.242;12.448;2023-05-10T07:43:06;100934.88;;;14.91;54.28
18765;BME280;9511;54.242;12.448;2023-05-10T07:45:33;100933.13;;;14.96;54.92
18765;BME280;9511;54.242;12.448;2023-05-10T07:48:00;100935.09;;;15.17;54.99
18765;BME280;9511;54.242;12.448;2023-05-10T07:50:28;100931.56;;;15.17;55.13
18765;BME280;9511;54.242;12.448;2023-05-10T07:52:55;100927.94;;;15.11;54.82
18765;BME280;9511;54.242;12.448;2023-05-10T07:55:24;100930.81;;;15.34;55.01
18765;BME280;9511;54.242;12.448;2023-05-10T07:57:52;100933.56;;;15.44;54.56
18765;BME280;9511;54.242;12.448;2023-05-10T08:00:20;100923.75;;;15.41;54.19
18765;BME280;9511;54.242;12.448;2023-05-10T08:02:47;100923.16;;;15.73;54.23
18765;BME280;9511;54.242;12.448;2023-05-10T08:05:15;100923.97;;;15.64;53.92
18765;BME280;9511;54.242;12.448;2023-05-10T08:07:42;100920.50;;;15.77;53.83
18765;BME280;9511;54.242;12.448;2023-05-10T08:10:09;100913.47;;;15.91;53.67
18765;BME280;9511;54.242;12.448;2023-05-10T08:12:39;100911.66;;;15.87;53.50
18765;BME280;9511;54.242;12.448;2023-05-10T08:15:07;100914.47;;;16.15;53.76
18765;BME280;9511;54.242;12.448;2023-05-10T08:17:35;100911.91;;;16.30;53.86
18765;BME280;9511;54.242;12.448;2023-05-10T08:20:02;100919.84;;;16.23;52.80
18765;BME280;9511;54.242;12.448;2023-05-10T08:22:30;100906.53;;;16.24;52.61
18765;BME280;9511;54.242;12.448;2023-05-10T08:24:57;100907.47;;;16.43;52.69
18765;BME280;9511;54.242;12.448;2023-05-10T08:27:24;100916.41;;;16.51;51.73
18765;BME280;9511;54.242;12.448;2023-05-10T08:29:53;100921.69;;;16.33;51.31
18765;BME280;9511;54.242;12.448;2023-05-10T08:32:20;100922.66;;;16.52;52.07
18765;BME280;9511;54.242;12.448;2023-05-10T08:34:47;100907.63;;;16.77;51.62
18765;BME280;9511;54.242;12.448;2023-05-10T08:37:15;100924.53;;;16.71;50.67
18765;BME280;9511;54.242;12.448;2023-05-10T08:39:42;100925.41;;;16.71;50.93
18765;BME280;9511;54.242;12.448;2023-05-10T08:42:11;100914.72;;;16.71;50.37
18765;BME280;9511;54.242;12.448;2023-05-10T08:44:42;100912.97;;;16.95;50.51
18765;BME280;9511;54.242;12.448;2023-05-10T08:47:12;100905.00;;;17.04;50.92
18765;BME280;9511;54.242;12.448;2023-05-10T08:49:42;100889.81;;;17.26;50.41
18765;BME280;9511;54.242;12.448;2023-05-10T08:52:13;100904.97;;;17.32;50.94
18765;BME280;9511;54.242;12.448;2023-05-10T08:54:42;100908.53;;;17.20;49.51
18765;BME280;9511;54.242;12.448;2023-05-10T08:57:10;100896.97;;;17.18;49.57
18765;BME280;9511;54.242;12.448;2023-05-10T08:59:37;100899.63;;;17.32;49.91
18765;BME280;9511;54.242;12.448;2023-05-10T09:02:05;100902.31;;;17.50;50.56
18765;BME280;9511;54.242;12.448;2023-05-10T09:04:34;100901.41;;;17.66;49.64
18765;BME280;9511;54.242;12.448;2023-05-10T09:07:02;100897.84;;;17.78;50.46
18765;BME280;9511;54.242;12.448;2023-05-10T09:09:29;100900.47;;;17.87;49.71
18765;BME280;9511;54.242;12.448;2023-05-10T09:11:58;100904.06;;;17.88;48.77
18765;BME280;9511;54.242;12.448;2023-05-10T09:14:25;100900.41;;;18.10;50.54
18765;BME280;9511;54.242;12.448;2023-05-10T09:16:53;100892.34;;;18.18;48.64
18765;BME280;9511;54.242;12.448;2023-05-10T09:19:21;100895.06;;;18.10;49.12
18765;BME280;9511;54.242;12.448;2023-05-10T09:21:50;100900.41;;;18.10;49.60
18765;BME280;9511;54.242;12.448;2023-05-10T09:24:17;100894.94;;;18.38;49.54
18765;BME280;9511;54.242;12.448;2023-05-10T09:26:48;100888.63;;;18.51;49.76
18765;BME280;9511;54.242;12.448;2023-05-10T09:29:15;100895.78;;;18.53;49.72
18765;BME280;9511;54.242;12.448;2023-05-10T09:31:44;100892.25;;;18.42;48.94
18765;BME280;9511;54.242;12.448;2023-05-10T09:34:16;100905.53;;;18.62;49.07
18765;BME280;9511;54.242;12.448;2023-05-10T09:36:54;100899.22;;;18.80;49.08
18765;BME280;9511;54.242;12.448;2023-05-10T09:39:30;100899.09;;;18.98;48.83
18765;BME280;9511;54.242;12.448;2023-05-10T09:41:58;100890.94;;;19.09;48.48
18765;BME280;9511;54.242;12.448;2023-05-10T09:44:26;100897.31;;;18.96;48.00
18765;BME280;9511;54.242;12.448;2023-05-10T09:46:54;100903.22;;;19.37;48.10
18765;BME280;9511;54.242;12.448;2023-05-10T09:49:21;100900.03;;;18.90;47.35
18765;BME280;9511;54.242;12.448;2023-05-10T09:52:00;100903.66;;;18.84;47.76
18765;BME280;9511;54.242;12.448;2023-05-10T09:54:28;100897.44;;;18.77;47.64
18765;BME280;9511;54.242;12.448;2023-05-10T09:56:56;100894.78;;;18.67;48.10
18765;BME280;9511;54.242;12.448;2023-05-10T09:59:25;100900.03;;;18.87;47.87
18765;BME280;9511;54.242;12.448;2023-05-10T10:01:55;100890.19;;;18.93;47.99
18765;BME280;9511;54.242;12.448;2023-05-10T10:04:23;100901.66;;;19.12;47.98
18765;BME280;9511;54.242;12.448;2023-05-10T10:07:04;100898.06;;;19.16;47.41
18765;BME280;9511;54.242;12.448;2023-05-10T10:09:32;100889.81;;;19.37;47.82
18765;BME280;9511;54.242;12.448;2023-05-10T10:12:00;100894.25;;;19.42;46.58
18765;BME280;9511;54.242;12.448;2023-05-10T10:14:28;100909.25;;;19.69;46.67
18765;BME280;9511;54.242;12.448;2023-05-10T10:16:56;100891.09;;;19.92;47.43
18765;BME280;9511;54.242;12.448;2023-05-10T10:19:23;100890.44;;;19.73;47.67
18765;BME280;9511;54.242;12.448;2023-05-10T10:21:50;100904.66;;;19.78;47.66
18765;BME280;9511;54.242;12.448;2023-05-10T10:24:19;100902.66;;;20.02;47.18
18765;BME280;9511;54.242;12.448;2023-05-10T10:26:47;100896.91;;;20.29;46.96
18765;BME280;9511;54.242;12.448;2023-05-10T10:29:23;100896.97;;;20.26;45.68
18765;BME280;9511;54.242;12.448;2023-05-10T10:31:57;100892.38;;;20.34;45.45
18765;BME280;9511;54.242;12.448;2023-05-10T10:34:29;100895.44;;;20.04;44.85
18765;BME280;9511;54.242;12.448;2023-05-10T10:36:57;100902.53;;;20.11;45.15
18765;BME280;9511;54.242;12.448;2023-05-10T10:39:26;100888.09;;;20.18;45.97
18765;BME280;9511;54.242;12.448;2023-05-10T10:41:54;100892.50;;;20.25;46.22
18765;BME280;9511;54.242;12.448;2023-05-10T10:44:34;100884.38;;;20.31;45.58
18765;BME280;9511;54.242;12.448;2023-05-10T10:47:03;100877.44;;;20.80;45.37
18765;BME280;9511;54.242;12.448;2023-05-10T10:49:38;100876.16;;;21.04;45.31
18765;BME280;9511;54.242;12.448;2023-05-10T10:52:21;100888.06;;;20.89;44.37
18765;BME280;9511;54.242;12.448;2023-05-10T10:54:56;100884.75;;;20.70;44.24
18765;BME280;9511;54.242;12.448;2023-05-10T10:57:24;100882.25;;;21.16;44.95
18765;BME280;9511;54.242;12.448;2023-05-10T11:00:24;100880.19;;;21.35;44.18
18765;BME280;9511;54.242;12.448;2023-05-10T11:02:53;100876.84;;;21.18;44.38
18765;BME280;9511;54.242;12.448;2023-05-10T11:05:35;100883.91;;;21.25;45.31
18765;BME280;9511;54.242;12.448;2023-05-10T11:08:16;100881.28;;;21.22;44.41
18765;BME280;9511;54.242;12.448;2023-05-10T11:10:54;100881.94;;;21.36;44.30
18765;BME280;9511;54.242;12.448;2023-05-10T11:13:30;100881.69;;;21.50;44.18
18765;BME280;9511;54.242;12.448;2023-05-10T11:15:58;100881.69;;;21.52;43.48
18765;BME280;9511;54.242;12.448;2023-05-10T11:18:27;100885.19;;;22.01;44.24
18765;BME280;9511;54.242;12.448;2023-05-10T11:20:57;100883.63;;;21.90;43.92
18765;BME280;9511;54.242;12.448;2023-05-10T11:23:29;100877.47;;;22.31;44.23
18765;BME280;9511;54.242;12.448;2023-05-10T11:25:59;100879.81;;;22.03;43.50
18765;BME280;9511;54.242;12.448;2023-05-10T11:28:27;100876.44;;;21.92;42.83
18765;BME280;9511;54.242;12.448;2023-05-10T11:30:54;100872.00;;;21.88;42.27
18765;BME280;9511;54.242;12.448;2023-05-10T11:33:22;100867.50;;;21.88;42.07
18765;BME280;9511;54.242;12.448;2023-05-10T11:35:49;100871.06;;;22.37;42.99
18765;BME280;9511;54.242;12.448;2023-05-10T11:38:17;100872.91;;;21.88;43.39
18765;BME280;9511;54.242;12.448;2023-05-10T11:40:44;100868.91;;;22.11;42.95
18765;BME280;9511;54.242;12.448;2023-05-10T11:43:13;100869.00;;;22.05;43.27
18765;BME280;9511;54.242;12.448;2023-05-10T11:45:41;100877.72;;;22.61;43.64
18765;BME280;9511;54.242;12.448;2023-05-10T11:48:08;100869.84;;;22.50;42.05
18765;BME280;9511;54.242;12.448;2023-05-10T11:50:35;100870.88;;;22.44;42.20
18765;BME280;9511;54.242;12.448;2023-05-10T11:53:03;100874.75;;;23.10;41.65
18765;BME280;9511;54.242;12.448;2023-05-10T11:55:33;100864.47;;;22.90;41.83
18765;BME280;9511;54.242;12.448;2023-05-10T11:58:01;100877.28;;;22.79;40.99
18765;BME280;9511;54.242;12.448;2023-05-10T12:00:31;100879.66;;;22.94;40.78
18765;BME280;9511;54.242;12.448;2023-05-10T12:03:00;100889.56;;;22.92;40.38
18765;BME280;9511;54.242;12.448;2023-05-10T12:05:27;100878.06;;;22.84;40.96
18765;BME280;9511;54.242;12.448;2023-05-10T12:08:10;100874.88;;;22.67;40.74
18765;BME280;9511;54.242;12.448;2023-05-10T12:10:37;100879.81;;;22.85;40.82
18765;BME280;9511;54.242;12.448;2023-05-10T12:13:05;100875.63;;;23.11;40.30
18765;BME280;9511;54.242;12.448;2023-05-10T12:15:34;100886.41;;;23.12;40.32
18765;BME280;9511;54.242;12.448;2023-05-10T12:18:01;100879.38;;;23.05;40.40
18765;BME280;9511;54.242;12.448;2023-05-10T12:20:28;100892.75;;;23.11;40.24
18765;BME280;9511;54.242;12.448;2023-05-10T12:22:57;100890.25;;;22.62;40.31
18765;BME280;9511;54.242;12.448;2023-05-10T12:25:30;100894.94;;;22.94;40.25
18765;BME280;9511;54.242;12.448;2023-05-10T12:27:59;100884.19;;;23.29;40.30
18765;BME280;9511;54.242;12.448;2023-05-10T12:30:28;100891.28;;;23.68;39.61
18765;BME280;9511;54.242;12.448;2023-05-10T12:33:00;100888.69;;;23.65;39.58
18765;BME280;9511;54.242;12.448;2023-05-10T12:35:32;100889.91;;;23.16;39.24
18765;BME280;9511;54.242;12.448;2023-05-10T12:37:59;100884.97;;;23.33;39.22
18765;BME280;9511;54.242;12.448;2023-05-10T12:40:27;100893.69;;;23.80;39.09
18765;BME280;9511;54.242;12.448;2023-05-10T12:42:54;100881.13;;;23.43;38.88
18765;BME280;9511;54.242;12.448;2023-05-10T12:45:22;100881.41;;;23.67;39.14
18765;BME280;9511;54.242;12.448;2023-05-10T12:47:49;100888.19;;;23.83;39.27
18765;BME280;9511;54.242;12.448;2023-05-10T12:50:18;100894.16;;;24.25;38.79
18765;BME280;9511;54.242;12.448;2023-05-10T12:52:45;100885.19;;;23.94;38.90
18765;BME280;9511;54.242;12.448;2023-05-10T12:55:12;100885.44;;;23.84;38.91
18765;BME280;9511;54.242;12.448;2023-05-10T12:57:40;100887.06;;;23.92;38.90
18765;BME280;9511;54.242;12.448;2023-05-10T13:00:08;100889.19;;;23.79;38.53
18765;BME280;9511;54.242;12.448;2023-05-10T13:02:35;100893.34;;;23.92;38.98
18765;BME280;9511;54.242;12.448;2023-05-10T13:05:03;100891.88;;;24.11;38.44
18765;BME280;9511;54.242;12.448;2023-05-10T13:07:32;100878.97;;;24.52;38.16
18765;BME280;9511;54.242;12.448;2023-05-10T13:10:00;100890.59;;;24.25;38.09
18765;BME280;9511;54.242;12.448;2023-05-10T13:12:27;100891.56;;;24.53;37.59
18765;BME280;9511;54.242;12.448;2023-05-10T13:14:55;100892.69;;;23.82;37.39
18765;BME280;9511;54.242;12.448;2023-05-10T13:17:22;100889.75;;;24.23;37.41
18765;BME280;9511;54.242;12.448;2023-05-10T13:19:50;100886.88;;;24.29;37.65
18765;BME280;9511;54.242;12.448;2023-05-10T13:22:17;100881.84;;;24.76;37.46
18765;BME280;9511;54.242;12.448;2023-05-10T13:24:46;100883.53;;;24.80;37.83
18765;BME280;9511;54.242;12.448;2023-05-10T13:27:13;100874.78;;;24.42;37.88
18765;BME280;9511;54.242;12.448;2023-05-10T13:29:40;100890.59;;;24.25;37.94
18765;BME280;9511;54.242;12.448;2023-05-10T13:32:08;100879.81;;;24.84;36.94
18765;BME280;9511;54.242;12.448;2023-05-10T13:34:35;100879.97;;;24.50;36.78
18765;BME280;9511;54.242;12.448;2023-05-10T13:37:02;100868.31;;;24.76;37.20
18765;BME280;9511;54.242;12.448;2023-05-10T13:39:29;100886.78;;;24.91;37.35
18765;BME280;9511;54.242;12.448;2023-05-10T13:42:01;100885.09;;;24.28;37.06
18765;BME280;9511;54.242;12.448;2023-05-10T13:44:29;100876.38;;;24.79;37.42
18765;BME280;9511;54.242;12.448;2023-05-10T13:46:56;100868.28;;;25.05;37.74
18765;BME280;9511;54.242;12.448;2023-05-10T13:49:23;100874.94;;;24.67;37.81
18765;BME280;9511;54.242;12.448;2023-05-10T13:51:51;100872.25;;;24.94;37.28
18765;BME280;9511;54.242;12.448;2023-05-10T13:54:18;100884.75;;;24.70;37.00
18765;BME280;9511;54.242;12.448;2023-05-10T13:56:48;100882.91;;;24.72;37.28
18765;BME280;9511;54.242;12.448;2023-05-10T13:59:16;100873.19;;;24.64;37.15
18765;BME280;9511;54.242;12.448;2023-05-10T14:01:43;100880.88;;;24.50;37.44
18765;BME280;9511;54.242;12.448;2023-05-10T14:04:11;100876.94;;;24.60;37.24
18765;BME280;9511;54.242;12.448;2023-05-10T14:06:38;100888.75;;;24.27;37.16
18765;BME280;9511;54.242;12.448;2023-05-10T14:09:05;100880.09;;;25.03;37.19
18765;BME280;9511;54.242;12.448;2023-05-10T14:11:33;100879.88;;;25.63;37.40
18765;BME280;9511;54.242;12.448;2023-05-10T14:14:00;100871.06;;;25.57;35.97
18765;BME280;9511;54.242;12.448;2023-05-10T14:16:29;100868.16;;;25.36;36.27
18765;BME280;9511;54.242;12.448;2023-05-10T14:18:57;100864.22;;;25.72;36.06
18765;BME280;9511;54.242;12.448;2023-05-10T14:21:24;100871.94;;;25.57;36.28
18765;BME280;9511;54.242;12.448;2023-05-10T14:23:52;100863.63;;;25.37;36.00
18765;BME280;9511;54.242;12.448;2023-05-10T14:26:20;100865.25;;;25.94;36.51
18765;BME280;9511;54.242;12.448;2023-05-10T14:28:47;100867.69;;;25.50;35.67
18765;BME280;9511;54.242;12.448;2023-05-10T14:31:15;100866.47;;;26.09;35.76
18765;BME280;9511;54.242;12.448;2023-05-10T14:33:44;100869.16;;;26.10;35.48
18765;BME280;9511;54.242;12.448;2023-05-10T14:36:11;100866.78;;;26.01;35.58
18765;BME280;9511;54.242;12.448;2023-05-10T14:38:39;100857.00;;;26.20;35.74
18765;BME280;9511;54.242;12.448;2023-05-10T14:41:06;100855.00;;;26.26;34.89
18765;BME280;9511;54.242;12.448;2023-05-10T14:43:33;100858.50;;;25.81;35.19
18765;BME280;9511;54.242;12.448;2023-05-10T14:46:02;100855.16;;;25.73;35.69
18765;BME280;9511;54.242;12.448;2023-05-10T14:48:29;100855.22;;;26.19;35.26
18765;BME280;9511;54.242;12.448;2023-05-10T14:50:58;100858.16;;;26.38;35.50
18765;BME280;9511;54.242;12.448;2023-05-10T14:53:25;100860.00;;;25.63;35.06
18765;BME280;9511;54.242;12.448;2023-05-10T14:55:52;100866.44;;;25.85;35.27
18765;BME280;9511;54.242;12.448;2023-05-10T14:58:19;100866.41;;;25.87;35.45
18765;BME280;9511;54.242;12.448;2023-05-10T15:00:47;100855.81;;;25.54;36.01
18765;BME280;9511;54.242;12.448;2023-05-10T15:03:14;100868.94;;;26.16;36.08
18765;BME280;9511;54.242;12.448;2023-05-10T15:05:41;100873.00;;;26.28;35.53
18765;BME280;9511;54.242;12.448;2023-05-10T15:08:10;100869.44;;;26.51;35.02
18765;BME280;9511;54.242;12.448;2023-05-10T15:10:38;100869.50;;;26.71;34.67
18765;BME280;9511;54.242;12.448;2023-05-10T15:13:05;100872.75;;;26.81;34.22
18765;BME280;9511;54.242;12.448;2023-05-10T15:15:33;100860.88;;;26.38;35.04
18765;BME280;9511;54.242;12.448;2023-05-10T15:18:00;100867.22;;;25.11;36.84
18765;BME280;9511;54.242;12.448;2023-05-10T15:20:27;100869.16;;;25.07;37.24
18765;BME280;9511;54.242;12.448;2023-05-10T15:22:54;100883.84;;;25.27;36.65
18765;BME280;9511;54.242;12.448;2023-05-10T15:25:23;100874.00;;;25.77;35.75
18765;BME280;9511;54.242;12.448;2023-05-10T15:27:50;100880.06;;;25.84;35.48
18765;BME280;9511;54.242;12.448;2023-05-10T15:30:18;100886.47;;;25.28;35.84
18765;BME280;9511;54.242;12.448;2023-05-10T15:32:45;100868.66;;;24.93;36.28
18765;BME280;9511;54.242;12.448;2023-05-10T15:35:13;100879.91;;;25.62;36.29
18765;BME280;9511;54.242;12.448;2023-05-10T15:37:41;100876.38;;;24.79;36.28
18765;BME280;9511;54.242;12.448;2023-05-10T15:40:09;100876.03;;;25.44;36.07
18765;BME280;9511;54.242;12.448;2023-05-10T15:42:37;100877.25;;;25.87;34.54
18765;BME280;9511;54.242;12.448;2023-05-10T15:45:05;100876.72;;;26.49;34.30
18765;BME280;9511;54.242;12.448;2023-05-10T15:47:33;100884.06;;;26.47;34.19
18765;BME280;9511;54.242;12.448;2023-05-10T15:50:00;100886.16;;;26.86;34.01
18765;BME280;9511;54.242;12.448;2023-05-10T15:52:27;100881.31;;;27.16;33.57
18765;BME280;9511;54.242;12.448;2023-05-10T15:54:55;100879.19;;;27.00;33.76
18765;BME280;9511;54.242;12.448;2023-05-10T15:57:22;100875.63;;;27.22;33.80
18765;BME280;9511;54.242;12.448;2023-05-10T15:59:51;100882.00;;;26.05;34.45
18765;BME280;9511;54.242;12.448;2023-05-10T16:02:18;100881.84;;;25.85;35.28
18765;BME280;9511;54.242;12.448;2023-05-10T16:04:46;100882.56;;;25.10;35.82